Time;durP1;ratioP1;P1;durP2;ratioP2;P2;SDS_P1;SDS_P2;PMS_P1;PMS_P2;Temp;Humidity;BMP_temperature;BMP_pressure;BME280_temperature;BME280_humidity;BME280_pressure;Samples;Min_cycle;Max_cycle;Signal;HPM_P1;HPM_P2
2021/09/26 00:02:24;;;;;;;2.58;1.52;;;;;;;27.69;40.43;100592.25;5073895;28;20103;-77
2021/09/26 00:04:50;;;;;;;2.83;1.67;;;;;;;27.62;40.65;100593.16;5073832;28;20032;-79
2021/09/26 00:07:16;;;;;;;3.17;1.80;;;;;;;27.64;40.48;100587.91;5073505;28;20024;-78
2021/09/26 00:09:41;;;;;;;5.15;2.35;;;;;;;27.53;40.78;100590.16;5072412;28;20027;-78
2021/09/26 00:12:07;;;;;;;3.88;1.48;;;;;;;27.50;40.55;100582.59;5073626;28;20029;-79
2021/09/26 00:14:33;;;;;;;2.38;1.45;;;;;;;27.47;40.69;100586.25;5073629;28;20028;-78
2021/09/26 00:16:59;;;;;;;4.78;2.50;;;;;;;27.57;40.36;100581.66;5073552;28;20498;-78
2021/09/26 00:19:27;;;;;;;2.17;1.65;;;;;;;27.58;40.33;100580.41;5073748;28;20513;-79
2021/09/26 00:21:53;;;;;;;2.70;1.50;;;;;;;27.59;40.14;100582.81;5073489;28;20025;-78
2021/09/26 00:24:19;;;;;;;4.05;1.85;;;;;;;27.55;40.28;100582.09;5073693;28;20024;-78
2021/09/26 00:26:45;;;;;;;3.88;1.77;;;;;;;27.54;40.38;100574.09;5073416;28;20098;-79
2021/09/26 00:29:10;;;;;;;4.18;1.90;;;;;;;27.51;40.31;100574.97;5073356;28;20483;-78
2021/09/26 00:31:36;;;;;;;7.13;2.53;;;;;;;27.44;40.48;100572.31;5073016;28;20061;-78
2021/09/26 00:34:01;;;;;;;4.22;2.28;;;;;;;27.50;40.36;100565.75;5073247;28;20052;-79
2021/09/26 00:36:27;;;;;;;2.55;1.52;;;;;;;27.39;40.64;100562.38;5073286;28;20100;-78
2021/09/26 00:38:54;;;;;;;4.25;2.03;;;;;;;27.44;40.54;100556.28;5073086;28;20039;-78
2021/09/26 00:41:20;;;;;;;2.38;1.88;;;;;;;27.46;40.51;100575.47;5073247;28;20031;-78
2021/09/26 00:43:46;;;;;;;3.30;1.92;;;;;;;27.47;40.33;100569.44;5073051;28;20085;-79
2021/09/26 00:46:11;;;;;;;2.45;1.70;;;;;;;27.36;40.71;100560.47;5073109;28;20036;-78
2021/09/26 00:48:37;;;;;;;1.75;1.55;;;;;;;27.38;40.64;100558.00;5071766;28;20030;-78
2021/09/26 00:51:09;;;;;;;2.80;1.90;;;;;;;27.40;40.48;100561.16;5072891;28;20029;-78
2021/09/26 00:53:35;;;;;;;3.95;1.77;;;;;;;27.40;40.44;100552.75;5072924;28;20032;-78
2021/09/26 00:56:01;;;;;;;4.07;1.67;;;;;;;27.36;40.64;100550.03;5072833;28;20028;-79
2021/09/26 00:58:29;;;;;;;3.55;1.90;;;;;;;27.16;41.14;100537.22;5072874;28;20028;-79
2021/09/26 01:00:55;;;;;;;1.88;1.58;;;;;;;27.16;40.91;100542.84;5072491;28;20085;-78
2021/09/26 01:03:21;;;;;;;1.90;1.70;;;;;;;27.19;40.82;100537.13;5072792;28;20052;-79
2021/09/26 01:06:02;;;;;;;1.75;1.50;;;;;;;27.14;40.98;100534.84;5072737;28;20056;-78
2021/09/26 01:09:00;;;;;;;3.15;1.88;;;;;;;27.04;41.18;100542.25;5072959;28;20037;-79
2021/09/26 01:11:39;;;;;;;2.08;1.63;;;;;;;27.04;40.96;100533.81;5072589;28;20119;-79
2021/09/26 01:14:25;;;;;;;3.40;1.77;;;;;;;27.00;40.92;100526.69;5073025;28;20368;-79
2021/09/26 01:17:25;;;;;;;3.55;2.08;;;;;;;26.96;40.95;100526.75;5071419;28;20395;-78
2021/09/26 01:20:31;;;;;;;2.45;1.52;;;;;;;26.93;41.08;100527.63;5072646;28;20032;-78
2021/09/26 01:23:06;;;;;;;2.22;1.40;;;;;;;26.90;41.03;100530.47;5072524;28;20453;-79
2021/09/26 01:26:02;;;;;;;1.98;1.20;;;;;;;26.85;41.00;100526.19;5072555;28;20021;-78
2021/09/26 01:28:56;;;;;;;2.53;1.48;;;;;;;26.75;41.09;100519.56;5072520;28;20024;-78
2021/09/26 01:31:28;;;;;;;3.80;1.65;;;;;;;26.61;41.42;100507.81;5072101;28;20522;-78
2021/09/26 01:34:08;;;;;;;3.13;1.80;;;;;;;26.49;41.41;100498.03;5072510;28;20035;-79
2021/09/26 01:36:45;;;;;;;1.98;1.25;;;;;;;26.48;41.34;100496.44;5072490;28;20024;-79
2021/09/26 01:39:17;;;;;;;1.98;1.23;;;;;;;26.47;41.36;100492.06;5072449;28;20473;-79
2021/09/26 01:41:45;;;;;;;4.55;1.35;;;;;;;26.50;41.36;100491.97;5072431;28;20052;-79
2021/09/26 01:44:20;;;;;;;1.88;1.00;;;;;;;26.52;41.14;100492.34;5072440;28;20027;-79
2021/09/26 01:46:50;;;;;;;1.40;0.80;;;;;;;26.50;41.15;100486.38;5072477;28;20033;-78
2021/09/26 01:49:40;;;;;;;2.28;1.23;;;;;;;26.41;41.66;100486.16;5072744;28;20048;-78
2021/09/26 01:52:20;;;;;;;0.77;0.68;;;;;;;26.44;41.53;100476.09;5070999;28;20036;-78
2021/09/26 01:54:47;;;;;;;1.30;0.80;;;;;;;26.44;41.47;100478.91;5072478;28;20661;-78
2021/09/26 01:57:15;;;;;;;2.08;0.73;;;;;;;26.37;41.62;100481.78;5072144;28;20058;-78
2021/09/26 01:59:41;;;;;;;2.55;0.85;;;;;;;26.46;41.50;100476.47;5072374;28;20111;-79
2021/09/26 02:02:07;;;;;;;0.70;0.68;;;;;;;26.38;41.54;100478.59;5072215;28;20113;-78
2021/09/26 02:04:35;;;;;;;1.15;0.75;;;;;;;26.39;41.68;100480.19;5072172;28;20059;-78
2021/09/26 02:07:01;;;;;;;1.15;0.73;;;;;;;26.34;42.03;100472.25;5072146;28;20475;-78
2021/09/26 02:09:27;;;;;;;2.88;0.70;;;;;;;26.29;41.91;100470.72;5072147;28;20035;-78
2021/09/26 02:11:53;;;;;;;0.70;0.70;;;;;;;26.24;41.97;100471.22;5072025;28;20036;-78
2021/09/26 02:14:19;;;;;;;0.73;0.68;;;;;;;26.30;41.96;100474.34;5074725;28;20024;-78
2021/09/26 02:16:45;;;;;;;3.42;1.20;;;;;;;26.29;42.21;100462.31;5075826;28;20478;-79
2021/09/26 02:19:12;;;;;;;1.20;1.00;;;;;;;26.32;41.99;100462.69;5075866;28;20047;-78
2021/09/26 02:21:38;;;;;;;0.70;0.63;;;;;;;26.28;42.28;100468.34;5075847;28;20432;-79
2021/09/26 02:24:04;;;;;;;1.13;0.70;;;;;;;26.30;42.46;100471.53;5075822;28;20480;-78
2021/09/26 02:26:33;;;;;;;3.80;0.70;;;;;;;26.26;42.30;100471.56;5075681;28;20028;-79
2021/09/26 02:28:58;;;;;;;0.95;0.70;;;;;;;26.18;42.48;100470.13;5075726;28;20082;-78
2021/09/26 02:31:24;;;;;;;1.75;0.85;;;;;;;26.31;42.36;100466.72;5075363;28;20048;-78
2021/09/26 02:33:49;;;;;;;2.05;0.80;;;;;;;26.26;42.51;100468.00;5075805;28;20055;-78
2021/09/26 02:36:16;;;;;;;1.38;0.90;;;;;;;26.29;42.15;100453.13;5075531;28;20761;-79
2021/09/26 02:38:42;;;;;;;16.75;1.67;;;;;;;26.05;42.90;100457.94;5075430;28;20051;-78
2021/09/26 02:41:44;;;;;;;2.30;0.70;;;;;;;26.21;42.70;100462.88;5075509;28;20112;-78
2021/09/26 02:44:16;;;;;;;2.80;0.80;;;;;;;26.36;42.12;100463.41;5074318;28;20033;-79
2021/09/26 02:46:52;;;;;;;1.00;0.70;;;;;;;26.30;42.45;100460.31;5075395;28;20115;-79
2021/09/26 02:49:18;;;;;;;1.73;0.88;;;;;;;26.27;42.50;100459.16;5075428;28;20042;-78
2021/09/26 02:51:45;;;;;;;0.93;0.65;;;;;;;26.31;42.34;100464.72;5075258;28;20475;-79
2021/09/26 02:54:11;;;;;;;0.60;0.60;;;;;;;26.35;42.33;100454.22;5075454;28;20390;-79
2021/09/26 02:56:38;;;;;;;1.85;1.35;;;;;;;26.33;42.30;100459.47;5075230;28;20029;-78
2021/09/26 02:59:04;;;;;;;1.45;0.80;;;;;;;26.35;42.14;100459.03;5075108;28;20382;-78
2021/09/26 03:01:30;;;;;;;2.97;1.23;;;;;;;26.31;42.34;100452.72;5075061;28;20028;-78
2021/09/26 03:04:00;;;;;;;1.70;1.00;;;;;;;26.25;42.43;100452.41;5075110;28;20025;-78
2021/09/26 03:06:26;;;;;;;2.38;1.02;;;;;;;26.25;42.54;100452.41;5075089;28;20024;-78
2021/09/26 03:08:51;;;;;;;1.98;0.80;;;;;;;26.28;42.66;100448.75;5074940;28;20448;-78
2021/09/26 03:11:17;;;;;;;1.33;0.80;;;;;;;26.32;42.67;100451.50;5074821;28;20491;-78
2021/09/26 03:13:42;;;;;;;2.05;0.60;;;;;;;26.34;42.44;100447.03;5074873;28;20107;-78
2021/09/26 03:16:08;;;;;;;2.08;0.90;;;;;;;26.40;42.56;100450.19;5073596;28;20020;-78
2021/09/26 03:18:33;;;;;;;2.47;0.90;;;;;;;26.39;42.29;100445.78;5074810;28;20104;-78
2021/09/26 03:20:59;;;;;;;1.38;0.70;;;;;;;26.41;42.38;100449.75;5074776;28;20448;-78
2021/09/26 03:23:25;;;;;;;1.73;0.85;;;;;;;26.46;42.16;100442.88;5074683;28;20486;-78
2021/09/26 03:25:52;;;;;;;1.17;0.85;;;;;;;26.49;42.30;100437.19;5074283;28;20032;-78
2021/09/26 03:28:18;;;;;;;2.72;0.80;;;;;;;26.46;42.44;100431.66;5074572;28;20050;-79
2021/09/26 03:30:44;;;;;;;1.27;0.80;;;;;;;26.48;42.02;100438.41;5074308;28;20136;-78
2021/09/26 03:33:09;;;;;;;0.80;0.80;;;;;;;26.43;42.47;100430.47;5074517;28;20121;-78
2021/09/26 03:35:37;;;;;;;3.47;0.77;;;;;;;26.48;42.15;100432.00;5074459;28;20112;-78
2021/09/26 03:38:04;;;;;;;3.90;1.00;;;;;;;26.52;42.25;100427.13;5074374;28;20025;-78
2021/09/26 03:40:29;;;;;;;2.30;0.88;;;;;;;26.52;42.42;100427.91;5074370;28;20475;-78
2021/09/26 03:42:55;;;;;;;2.95;0.98;;;;;;;26.54;42.09;100425.47;5074357;28;20028;-80
2021/09/26 03:45:21;;;;;;;1.58;1.00;;;;;;;26.51;42.27;100431.94;5074377;28;20020;-79
2021/09/26 03:47:47;;;;;;;2.38;1.13;;;;;;;26.52;42.19;100433.50;5074199;28;20036;-78
2021/09/26 03:50:13;;;;;;;4.57;1.15;;;;;;;26.57;42.25;100434.25;5074188;28;20059;-78
2021/09/26 03:52:38;;;;;;;4.15;1.35;;;;;;;26.55;42.42;100427.06;5074029;28;20029;-78
2021/09/26 03:55:07;;;;;;;2.33;0.80;;;;;;;26.73;41.98;100426.69;5074090;28;20454;-79
2021/09/26 03:57:33;;;;;;;3.67;1.30;;;;;;;26.88;41.46;100426.41;5074002;28;20020;-79
2021/09/26 03:59:59;;;;;;;2.03;1.02;;;;;;;27.00;41.26;100423.75;5073929;28;20085;-78
2021/09/26 04:02:25;;;;;;;2.53;0.93;;;;;;;27.03;41.28;100422.88;5073876;28;20038;-78
2021/09/26 04:04:50;;;;;;;2.38;0.85;;;;;;;26.73;41.94;100423.09;5073955;28;20021;-78
2021/09/26 04:07:16;;;;;;;1.15;0.80;;;;;;;27.04;41.24;100424.47;5073825;28;20024;-79
2021/09/26 04:09:41;;;;;;;1.02;0.80;;;;;;;27.07;41.33;100418.03;5073782;28;20031;-78
2021/09/26 04:12:07;;;;;;;2.58;1.00;;;;;;;27.06;41.27;100415.66;5073605;28;20108;-78
2021/09/26 04:14:33;;;;;;;0.98;0.80;;;;;;;27.01;41.15;100414.13;5073737;28;20059;-79
2021/09/26 04:16:58;;;;;;;1.13;0.80;;;;;;;26.87;41.47;100410.81;5073640;28;20028;-78
2021/09/26 04:19:24;;;;;;;2.38;1.13;;;;;;;26.85;41.43;100411.25;5073560;28;20490;-78
2021/09/26 04:21:50;;;;;;;2.58;1.00;;;;;;;26.85;41.52;100400.03;5073585;28;20032;-79
2021/09/26 04:24:17;;;;;;;4.15;1.23;;;;;;;26.97;41.07;100401.38;5073533;28;20032;-78
2021/09/26 04:26:43;;;;;;;1.10;1.00;;;;;;;26.87;41.28;100406.00;5073418;28;20025;-78
2021/09/26 04:29:09;;;;;;;1.80;1.00;;;;;;;26.79;41.37;100412.97;5073453;28;20182;-78
2021/09/26 04:31:34;;;;;;;2.28;1.25;;;;;;;26.79;41.48;100401.75;5073164;28;20059;-78
2021/09/26 04:34:00;;;;;;;2.88;1.45;;;;;;;26.77;41.44;100402.22;5073271;28;20078;-78
2021/09/26 04:36:25;;;;;;;2.08;1.08;;;;;;;26.79;41.48;100398.97;5072601;28;20074;-79
2021/09/26 04:38:51;;;;;;;3.13;1.05;;;;;;;26.76;41.35;100386.63;5061069;28;20029;-78
2021/09/26 04:41:17;;;;;;;4.85;1.35;;;;;;;26.67;41.44;100385.59;5053160;28;20082;-78
2021/09/26 04:43:42;;;;;;;2.55;0.90;;;;;;;26.61;41.83;100378.94;5053213;28;20531;-79
2021/09/26 04:46:08;;;;;;;4.70;1.20;;;;;;;26.63;41.77;100377.28;5052871;28;20040;-78
2021/09/26 04:48:33;;;;;;;2.80;1.30;;;;;;;26.58;41.89;100372.16;5053075;28;20033;-78
2021/09/26 04:50:59;;;;;;;2.08;1.00;;;;;;;26.53;42.00;100379.09;5035063;28;20111;-78
2021/09/26 04:53:24;;;;;;;1.75;0.82;;;;;;;26.51;42.09;100369.50;5052966;28;20033;-79
2021/09/26 04:55:50;;;;;;;3.10;0.85;;;;;;;26.47;41.96;100361.19;5052929;28;20074;-78
2021/09/26 04:58:16;;;;;;;3.28;0.90;;;;;;;26.50;42.07;100360.31;5052899;28;20036;-78
2021/09/26 05:00:42;;;;;;;2.05;0.75;;;;;;;26.52;42.12;100365.47;5052848;28;20036;-79
2021/09/26 05:03:08;;;;;;;2.13;1.00;;;;;;;26.45;42.16;100360.03;5052889;28;20391;-78
2021/09/26 05:05:33;;;;;;;1.20;0.85;;;;;;;26.43;42.05;100357.66;5052793;28;20025;-78
2021/09/26 05:07:59;;;;;;;1.88;1.02;;;;;;;26.24;42.93;100350.03;5053029;28;20543;-78
2021/09/26 05:10:25;;;;;;;2.67;0.68;;;;;;;26.40;42.45;100341.72;5052770;28;20104;-78
2021/09/26 05:12:51;;;;;;;2.25;1.02;;;;;;;26.41;42.68;100332.09;5052589;28;20039;-78
2021/09/26 05:15:16;;;;;;;6.07;0.93;;;;;;;26.49;42.20;100332.75;5052646;28;20107;-79
2021/09/26 05:17:42;;;;;;;1.95;0.95;;;;;;;26.45;42.54;100338.44;5052629;28;20510;-77
2021/09/26 05:20:08;;;;;;;1.80;0.90;;;;;;;26.38;42.73;100332.94;5052635;28;20392;-78
2021/09/26 05:22:35;;;;;;;2.35;1.00;;;;;;;26.41;42.63;100334.09;5052526;28;20487;-78
2021/09/26 05:25:02;;;;;;;2.63;1.13;;;;;;;26.49;42.55;100335.53;5052590;28;20032;-77
2021/09/26 05:27:28;;;;;;;2.28;1.02;;;;;;;26.45;42.80;100332.81;5052498;28;20040;-78
2021/09/26 05:29:53;;;;;;;4.35;1.60;;;;;;;26.42;42.77;100335.69;5052377;28;20034;-77
2021/09/26 05:32:19;;;;;;;2.92;1.15;;;;;;;26.38;42.95;100332.94;5052871;28;20143;-77
2021/09/26 05:34:44;;;;;;;1.48;0.80;;;;;;;26.37;43.00;100331.34;5052371;28;20490;-77
2021/09/26 05:37:11;;;;;;;2.40;1.13;;;;;;;26.20;43.35;100326.88;5052421;28;20033;-77
2021/09/26 05:39:38;;;;;;;1.42;0.73;;;;;;;26.29;43.05;100332.69;5052373;28;20029;-78
2021/09/26 05:42:04;;;;;;;5.28;1.10;;;;;;;26.27;43.31;100327.53;5052410;28;20375;-78
2021/09/26 05:44:33;;;;;;;2.35;1.15;;;;;;;26.27;43.25;100333.13;5052369;28;20025;-78
2021/09/26 05:46:59;;;;;;;;;;;;;;;26.28;43.18;100336.72;5053400;28;20024;-78
2021/09/26 05:49:25;;;;;;;1.23;1.00;;;;;;;26.32;43.27;100343.06;5055109;28;19919;-78
2021/09/26 05:51:51;;;;;;;4.03;1.25;;;;;;;26.21;43.39;100342.47;5056293;28;20035;-79
2021/09/26 05:54:18;;;;;;;2.60;0.88;;;;;;;26.23;42.86;100335.22;5056327;28;20075;-79
2021/09/26 05:56:43;;;;;;;3.97;1.15;;;;;;;26.22;43.07;100341.25;5055073;28;20601;-79
2021/09/26 05:59:09;;;;;;;2.35;1.00;;;;;;;26.24;43.19;100338.81;5055046;28;20088;-79
2021/09/26 06:01:34;;;;;;;6.15;1.67;;;;;;;26.18;43.26;100332.13;5054998;28;20041;-79
2021/09/26 06:04:00;;;;;;;2.30;0.98;;;;;;;26.10;43.46;100330.69;5071656;28;20039;-78
2021/09/26 06:06:27;;;;;;;3.65;1.08;;;;;;;26.05;43.89;100325.56;5056096;28;20493;-79
2021/09/26 06:08:52;;;;;;;0.80;0.80;;;;;;;25.95;44.15;100322.56;5056113;28;20104;-79
2021/09/26 06:11:18;;;;;;;2.05;0.80;;;;;;;26.10;43.81;100322.28;5055968;28;20112;-78
2021/09/26 06:13:43;;;;;;;3.13;0.77;;;;;;;26.16;44.10;100312.19;5056031;28;20100;-79
2021/09/26 06:16:09;;;;;;;1.92;1.00;;;;;;;26.05;44.12;100315.16;5056064;28;20108;-79
2021/09/26 06:18:35;;;;;;;3.05;1.05;;;;;;;26.32;43.81;100315.06;5055888;28;20037;-79
2021/09/26 06:21:00;;;;;;;5.32;1.48;;;;;;;26.29;44.04;100322.28;5055849;28;20502;-79
2021/09/26 06:23:26;;;;;;;4.70;1.00;;;;;;;26.21;44.36;100320.06;5066463;28;20021;-79
2021/09/26 06:25:51;;;;;;;2.92;1.73;;;;;;;26.34;44.17;100331.41;5075447;28;20029;-79
2021/09/26 06:28:17;;;;;;;1.67;0.90;;;;;;;26.41;43.89;100323.69;5075731;28;20044;-80
2021/09/26 06:30:42;;;;;;;1.77;0.88;;;;;;;26.41;43.66;100320.09;5075435;28;20048;-79
2021/09/26 06:33:08;;;;;;;8.50;1.60;;;;;;;26.30;43.85;100320.31;5075705;28;20509;-80
2021/09/26 06:35:34;;;;;;;4.20;1.27;;;;;;;26.32;44.15;100305.84;5075669;28;20035;-78
2021/09/26 06:38:00;;;;;;;1.75;1.00;;;;;;;26.35;43.76;100305.78;5075497;28;20033;-77
2021/09/26 06:40:26;;;;;;;2.08;1.10;;;;;;;26.36;43.85;100307.34;5075204;28;20024;-77
2021/09/26 06:42:52;;;;;;;3.30;1.13;;;;;;;26.32;43.94;100305.84;5075397;28;20028;-79
2021/09/26 06:45:18;;;;;;;2.78;0.85;;;;;;;26.39;43.85;100308.56;5075409;28;20090;-78
2021/09/26 06:47:43;;;;;;;3.80;1.30;;;;;;;26.40;43.76;100305.31;5074044;28;20055;-79
2021/09/26 06:50:09;;;;;;;4.07;1.40;;;;;;;26.38;43.59;100304.94;5075335;28;20384;-77
2021/09/26 06:52:36;;;;;;;2.35;0.70;;;;;;;26.41;43.60;100298.47;5075215;28;20372;-77
2021/09/26 06:55:03;;;;;;;5.43;1.13;;;;;;;26.34;43.99;100293.00;5075315;28;20024;-78
2021/09/26 06:57:29;;;;;;;1.98;1.05;;;;;;;26.36;43.81;100301.75;5075265;28;20489;-78
2021/09/26 06:59:54;;;;;;;6.35;1.42;;;;;;;26.40;43.68;100293.31;5074486;28;20111;-78
2021/09/26 07:02:23;;;;;;;3.03;1.00;;;;;;;26.37;43.88;100292.13;5075367;28;20104;-80
2021/09/26 07:04:50;;;;;;;3.05;1.05;;;;;;;26.40;43.80;100291.31;5075164;28;20036;-77
2021/09/26 07:07:16;;;;;;;2.63;0.90;;;;;;;26.36;43.60;100292.56;5075122;28;20629;-78
2021/09/26 07:09:43;;;;;;;1.55;0.80;;;;;;;26.31;44.00;100293.88;5075072;28;20020;-86
2021/09/26 07:12:09;;;;;;;3.13;0.82;;;;;;;26.36;44.17;100300.97;5074906;28;20054;-82
2021/09/26 07:14:35;;;;;;;1.85;0.80;;;;;;;26.26;44.46;100297.16;5073669;28;20397;-82
2021/09/26 07:17:01;;;;;;;3.35;1.05;;;;;;;26.59;43.68;100286.09;5071307;28;20028;-79
2021/09/26 07:19:27;;;;;;;1.73;0.80;;;;;;;26.59;43.81;100291.69;5062626;28;20020;-81
2021/09/26 07:21:52;;;;;;;1.98;1.02;;;;;;;26.66;43.57;100306.34;5067238;28;20052;-80
2021/09/26 07:24:18;;;;;;;1.73;1.02;;;;;;;26.68;43.95;100305.94;5057031;28;20111;-78
2021/09/26 07:26:43;;;;;;;4.43;0.93;;;;;;;26.80;43.72;100296.84;5074518;28;20446;-77
2021/09/26 07:29:09;;;;;;;2.92;0.90;;;;;;;26.83;43.68;100301.59;5074662;28;20112;-79
2021/09/26 07:31:35;;;;;;;2.13;1.23;;;;;;;26.60;44.50;100301.69;5074286;28;20456;-78
2021/09/26 07:34:02;;;;;;;1.88;1.00;;;;;;;26.84;43.80;100305.97;5072637;28;20055;-77
2021/09/26 07:36:28;;;;;;;6.10;1.48;;;;;;;26.90;43.98;100300.63;5054601;28;20029;-79
2021/09/26 07:38:54;;;;;;;4.03;0.98;;;;;;;27.06;43.59;100301.47;5054250;28;20369;-79
2021/09/26 07:41:19;;;;;;;1.30;0.88;;;;;;;27.17;43.67;100308.84;5052851;28;20035;-79
2021/09/26 07:43:45;;;;;;;2.47;0.90;;;;;;;27.26;43.34;100309.03;5052317;28;20033;-76
2021/09/26 07:46:11;;;;;;;3.15;1.33;;;;;;;27.41;43.15;100301.03;5053725;28;20112;-76
2021/09/26 07:48:36;;;;;;;2.40;0.90;;;;;;;27.57;42.90;100290.59;5052978;28;20104;-76
2021/09/26 07:51:02;;;;;;;3.92;1.00;;;;;;;27.68;42.98;100295.97;5054742;28;20379;-76
2021/09/26 07:53:27;;;;;;;1.45;1.00;;;;;;;27.74;42.95;100296.22;5072838;28;20028;-77
2021/09/26 07:55:55;;;;;;;3.00;1.20;;;;;;;27.85;42.90;100293.91;5074395;28;20024;-76
2021/09/26 07:58:21;;;;;;;2.50;1.10;;;;;;;28.00;42.56;100294.31;5071804;28;20021;-76
2021/09/26 08:00:47;;;;;;;1.63;0.60;;;;;;;27.87;43.23;100297.06;5071024;28;20116;-77
2021/09/26 08:03:13;;;;;;;5.28;2.45;;;;;;;28.07;42.44;100294.91;5072202;28;20021;-77
2021/09/26 08:05:39;;;;;;;3.00;0.90;;;;;;;28.15;42.07;100287.06;5072201;28;20028;-77
2021/09/26 08:08:04;;;;;;;1.45;0.73;;;;;;;28.16;42.54;100295.03;5072035;28;20024;-76
2021/09/26 08:10:30;;;;;;;3.72;1.20;;;;;;;28.23;41.87;100296.09;5071088;28;20056;-77
2021/09/26 08:12:55;;;;;;;5.07;1.33;;;;;;;28.31;42.00;100297.47;5071840;28;20033;-77
2021/09/26 08:15:21;;;;;;;1.17;0.80;;;;;;;28.31;41.69;100300.28;5073756;28;20021;-76
2021/09/26 08:17:47;;;;;;;3.75;1.10;;;;;;;28.17;41.79;100299.44;5073613;28;20107;-76
2021/09/26 08:20:13;;;;;;;1.23;0.93;;;;;;;28.29;41.53;100305.53;5073621;28;20028;-76
2021/09/26 08:22:39;;;;;;;1.33;0.90;;;;;;;28.28;41.67;100295.53;5072315;28;20033;-76
2021/09/26 08:25:06;;;;;;;1.17;1.08;;;;;;;28.35;41.35;100303.81;5072476;28;20441;-76
2021/09/26 08:27:33;;;;;;;1.02;0.65;;;;;;;28.33;41.56;100309.06;5053689;28;20208;-76
2021/09/26 08:29:59;;;;;;;0.90;0.57;;;;;;;28.54;41.16;100308.44;5053241;28;20112;-77
2021/09/26 08:32:25;;;;;;;1.35;0.50;;;;;;;28.36;41.45;100311.00;5053336;28;20040;-76
2021/09/26 08:34:50;;;;;;;2.55;0.80;;;;;;;28.42;41.18;100318.44;5053342;28;20025;-76
2021/09/26 08:37:16;;;;;;;2.17;0.95;;;;;;;28.52;41.08;100312.94;5053218;28;20028;-75
2021/09/26 08:39:42;;;;;;;4.05;1.38;;;;;;;28.66;40.72;100318.13;5052001;28;20380;-75
2021/09/26 08:42:08;;;;;;;5.60;1.15;;;;;;;28.71;40.57;100312.72;5051939;28;20025;-75
2021/09/26 08:44:33;;;;;;;1.52;0.80;;;;;;;28.65;40.79;100311.72;5053185;28;20060;-75
2021/09/26 08:47:00;;;;;;;0.52;0.47;;;;;;;28.54;40.93;100314.06;5051927;28;20021;-75
2021/09/26 08:49:27;;;;;;;1.20;0.60;;;;;;;28.48;41.10;100298.97;5053142;28;20383;-75
2021/09/26 08:51:53;;;;;;;2.20;0.40;;;;;;;28.64;40.56;100296.09;5052948;28;20032;-75
2021/09/26 08:54:19;;;;;;;1.55;0.43;;;;;;;28.81;40.26;100304.44;5053014;28;20033;-75
2021/09/26 08:56:45;;;;;;;1.25;0.50;;;;;;;29.00;39.91;100300.63;5052878;28;20052;-75
2021/09/26 08:59:12;;;;;;;2.33;0.77;;;;;;;29.00;40.14;100301.41;5052937;28;20029;-75
2021/09/26 09:01:39;;;;;;;2.40;0.70;;;;;;;29.14;39.83;100296.59;5052889;28;20029;-75
2021/09/26 09:04:05;;;;;;;1.10;0.68;;;;;;;29.06;40.05;100304.47;5053202;28;20040;-75
2021/09/26 09:06:45;;;;;;;1.92;0.82;;;;;;;29.24;39.51;100303.88;5052792;28;20032;-74
2021/09/26 09:09:16;;;;;;;4.57;1.05;;;;;;;29.12;39.63;100307.50;5051559;28;20032;-75
2021/09/26 09:12:02;;;;;;;1.13;0.55;;;;;;;28.97;39.61;100295.94;5052783;28;20037;-75
2021/09/26 09:14:54;;;;;;;3.00;0.80;;;;;;;29.02;39.08;100293.34;5052660;28;20025;-76
2021/09/26 09:17:31;;;;;;;1.73;0.93;;;;;;;29.30;38.98;100291.59;5052719;28;20021;-75
2021/09/26 09:20:15;;;;;;;1.50;0.68;;;;;;;29.14;39.01;100279.72;5052661;28;20025;-75
2021/09/26 09:22:42;;;;;;;2.35;0.98;;;;;;;29.08;38.92;100285.09;5052338;28;20029;-75
2021/09/26 09:25:09;;;;;;;5.95;0.90;;;;;;;28.83;39.26;100291.50;5050759;28;20471;-75
2021/09/26 09:27:34;;;;;;;2.85;1.00;;;;;;;28.99;38.91;100291.41;5050714;28;20029;-76
2021/09/26 09:30:04;;;;;;;2.03;0.82;;;;;;;29.05;38.55;100290.88;5051583;28;20041;-75
2021/09/26 09:32:31;;;;;;;2.95;0.95;;;;;;;28.98;38.12;100278.59;5052668;28;20053;-75
2021/09/26 09:34:57;;;;;;;1.40;0.73;;;;;;;29.02;37.83;100290.53;5052430;28;20110;-75
2021/09/26 09:37:25;;;;;;;3.55;1.33;;;;;;;29.19;36.95;100284.78;5052414;28;20023;-75
2021/09/26 09:40:15;;;;;;;2.22;0.80;;;;;;;29.46;36.35;100282.22;5051333;28;20107;-75
2021/09/26 09:42:43;;;;;;;;;;;;;;;29.36;36.27;100254.47;5052853;28;20118;-76
2021/09/26 09:45:29;;;;;;;2.92;1.00;;;;;;;29.46;36.12;100264.56;5052385;28;19909;-77
2021/09/26 09:48:11;;;;;;;2.72;1.05;;;;;;;29.42;35.77;100261.09;5051202;28;20033;-76
2021/09/26 09:51:00;;;;;;;4.60;1.30;;;;;;;29.33;35.68;100261.03;5052423;28;20383;-75
2021/09/26 09:53:38;;;;;;;3.13;0.90;;;;;;;29.63;35.10;100251.16;5052329;28;20025;-75
2021/09/26 09:56:22;;;;;;;5.68;1.42;;;;;;;29.58;35.25;100238.44;5052272;28;20024;-75
2021/09/26 09:58:54;;;;;;;3.55;1.27;;;;;;;29.91;35.39;100254.97;5051144;28;20021;-75
2021/09/26 10:01:27;;;;;;;2.10;1.02;;;;;;;30.00;35.01;100252.22;5052226;28;20068;-76
2021/09/26 10:03:54;;;;;;;3.60;1.25;;;;;;;29.98;35.04;100249.09;5052147;28;20115;-75
2021/09/26 10:06:28;;;;;;;5.00;1.27;;;;;;;29.79;34.50;100237.69;5052234;28;20387;-76
2021/09/26 10:08:55;;;;;;;3.25;1.10;;;;;;;29.82;34.39;100231.13;5050927;28;20533;-77
2021/09/26 10:11:22;;;;;;;5.18;1.45;;;;;;;29.73;33.94;100222.63;5052012;28;20044;-77
2021/09/26 10:13:47;;;;;;;2.28;1.17;;;;;;;29.73;33.49;100214.19;5052129;28;20036;-77
2021/09/26 10:16:14;;;;;;;5.20;1.40;;;;;;;29.93;33.59;100250.47;5052132;28;20364;-76
2021/09/26 10:18:43;;;;;;;5.78;1.20;;;;;;;30.11;33.08;100247.03;5051977;28;20028;-76
2021/09/26 10:21:11;;;;;;;3.97;1.20;;;;;;;30.21;33.14;100240.19;5052084;28;20074;-75
2021/09/26 10:23:40;;;;;;;6.57;1.63;;;;;;;30.29;33.21;100241.50;5051989;28;20025;-75
2021/09/26 10:26:07;;;;;;;6.85;1.58;;;;;;;30.45;33.09;100225.59;5051901;28;20029;-76
2021/09/26 10:28:34;;;;;;;4.55;1.30;;;;;;;30.46;32.69;100239.25;5052167;28;20029;-76
2021/09/26 10:31:03;;;;;;;3.90;1.27;;;;;;;30.47;32.99;100245.69;5050469;28;20126;-76
2021/09/26 10:33:30;;;;;;;6.70;1.40;;;;;;;30.61;32.71;100251.56;5051852;28;20036;-75
2021/09/26 10:35:58;;;;;;;5.60;1.40;;;;;;;30.44;32.33;100241.75;5055324;28;20486;-75
2021/09/26 10:38:24;;;;;;;6.47;1.40;;;;;;;30.73;32.00;100223.72;5055678;28;20114;-75
2021/09/26 10:40:51;;;;;;;6.60;1.35;;;;;;;30.54;32.26;100240.56;5055630;28;20415;-75
2021/09/26 10:43:25;;;;;;;6.90;1.60;;;;;;;30.02;32.79;100246.94;5055739;28;20025;-76
2021/09/26 10:46:13;;;;;;;4.72;1.33;;;;;;;30.00;32.31;100253.03;5055538;28;20053;-76
2021/09/26 10:48:57;;;;;;;6.00;1.52;;;;;;;29.91;32.31;100243.72;5055618;28;20102;-76
2021/09/26 10:51:49;;;;;;;3.35;1.17;;;;;;;30.00;32.29;100232.50;5055493;28;20403;-76
2021/09/26 10:54:30;;;;;;;3.25;1.52;;;;;;;30.43;32.12;100239.38;5055404;28;20464;-75
2021/09/26 10:57:19;;;;;;;2.90;1.20;;;;;;;30.45;32.28;100236.88;5055585;28;20021;-75
2021/09/26 10:59:58;;;;;;;4.20;1.08;;;;;;;30.73;31.78;100232.19;5055565;28;20036;-76
2021/09/26 11:02:25;;;;;;;6.68;1.80;;;;;;;30.72;32.17;100237.06;5055458;28;20036;-76
2021/09/26 11:04:56;;;;;;;3.80;1.20;;;;;;;30.50;31.61;100228.63;5054169;28;20025;-76
2021/09/26 11:07:29;;;;;;;6.78;1.77;;;;;;;30.56;31.43;100240.09;5055068;28;20029;-77
2021/09/26 11:10:01;;;;;;;3.92;1.52;;;;;;;30.52;31.70;100231.75;5055007;28;20017;-76
2021/09/26 11:12:44;;;;;;;5.53;1.60;;;;;;;30.53;30.73;100243.81;5054875;28;20025;-76
2021/09/26 11:15:17;;;;;;;4.22;1.10;;;;;;;30.62;30.51;100233.38;5053638;28;20028;-77
2021/09/26 11:17:46;;;;;;;5.30;1.20;;;;;;;30.65;30.87;100226.03;5054926;28;20021;-75
2021/09/26 11:20:32;;;;;;;8.40;1.90;;;;;;;30.25;30.78;100232.41;5054895;28;20040;-76
2021/09/26 11:23:03;;;;;;;5.80;1.88;;;;;;;30.75;30.78;100222.00;5054848;28;20111;-76
2021/09/26 11:26:00;;;;;;;6.18;1.77;;;;;;;30.92;30.78;100220.53;5054847;28;20514;-76
2021/09/26 11:28:35;;;;;;;4.38;1.38;;;;;;;30.86;30.67;100215.97;5054520;28;20395;-76
2021/09/26 11:31:05;;;;;;;1.42;0.73;;;;;;;31.26;30.54;100207.44;5054447;28;20045;-76
2021/09/26 11:33:54;;;;;;;11.73;2.03;;;;;;;31.08;30.24;100204.56;5054654;28;20021;-76
2021/09/26 11:36:20;;;;;;;2.97;1.08;;;;;;;31.15;30.62;100196.59;5054385;28;20484;-76